Time;durP1;ratioP1;P1;durP2;ratioP2;P2;SDS_P1;SDS_P2;PMS_P1;PMS_P2;Temp;Humidity;BMP_temperature;BMP_pressure;BME280_temperature;BME280_humidity;BME280_pressure;Samples;Min_cycle;Max_cycle;Signal;HPM_P1;HPM_P2
2022/06/10 00:00:35;;;;;;;7.05;6.35;;;16.70;99.90;;;;;;2080631;28;20501;-72
2022/06/10 00:01:36;;;;;;;9.25;6.60;;;16.70;99.90;;;;;;2081152;28;20506;-72
2022/06/10 00:02:37;;;;;;;8.77;7.03;;;16.70;99.90;;;;;;2089088;28;20060;-72
2022/06/10 00:03:37;;;;;;;9.63;7.40;;;16.70;99.90;;;;;;2089557;28;20025;-72
2022/06/10 00:04:38;;;;;;;8.48;6.90;;;16.70;99.90;;;;;;2089881;28;20035;-72
2022/06/10 00:05:41;;;;;;;9.70;7.50;;;16.70;99.90;;;;;;2089629;28;20119;-72
2022/06/10 00:06:42;;;;;;;10.07;7.38;;;16.70;99.90;;;;;;2089095;28;20079;-72
2022/06/10 00:07:43;;;;;;;12.43;7.32;;;16.70;99.90;;;;;;2089337;28;20194;-72
2022/06/10 00:08:46;;;;;;;10.13;7.47;;;16.70;99.90;;;;;;2088732;28;20025;-72
2022/06/10 00:09:47;;;;;;;8.75;7.10;;;16.70;99.90;;;;;;2088668;28;20076;-72
2022/06/10 00:10:51;;;;;;;12.63;7.60;;;16.70;99.90;;;;;;2088808;28;20120;-72
2022/06/10 00:11:52;;;;;;;8.15;6.90;;;16.70;99.90;;;;;;2088828;28;20021;-72
2022/06/10 00:12:53;;;;;;;8.05;6.93;;;16.70;99.90;;;;;;2089222;28;20254;-72
2022/06/10 00:13:54;;;;;;;7.35;6.60;;;16.70;99.90;;;;;;2089088;28;20044;-72
2022/06/10 00:14:54;;;;;;;8.65;7.32;;;16.70;99.90;;;;;;2089066;28;20079;-72
2022/06/10 00:15:55;;;;;;;8.18;6.63;;;16.70;99.90;;;;;;2089324;28;20395;-71
2022/06/10 00:16:56;;;;;;;7.28;6.55;;;16.80;99.90;;;;;;2089310;28;20029;-72
2022/06/10 00:17:57;;;;;;;9.35;6.68;;;16.80;99.90;;;;;;2089230;28;20044;-73
2022/06/10 00:18:57;;;;;;;8.68;6.72;;;16.80;99.90;;;;;;2088536;28;20635;-73
2022/06/10 00:19:58;;;;;;;6.97;5.75;;;16.80;99.90;;;;;;2088427;28;20449;-73
2022/06/10 00:21:01;;;;;;;10.57;6.97;;;16.80;99.90;;;;;;2089154;28;20084;-73
2022/06/10 00:22:04;;;;;;;10.23;7.15;;;16.80;99.90;;;;;;2089234;28;20017;-73
2022/06/10 00:23:05;;;;;;;9.68;7.63;;;16.70;99.90;;;;;;2089119;28;20120;-73
2022/06/10 00:24:06;;;;;;;8.10;6.80;;;16.70;99.90;;;;;;2080242;28;20040;-73
2022/06/10 00:25:08;;;;;;;9.00;6.57;;;16.70;99.90;;;;;;2080006;28;20025;-73
2022/06/10 00:26:09;;;;;;;9.15;6.40;;;16.70;99.90;;;;;;2088629;28;20766;-73
2022/06/10 00:27:10;;;;;;;14.25;7.55;;;16.70;99.90;;;;;;2088813;28;20552;-74
2022/06/10 00:28:12;;;;;;;10.82;7.32;;;16.70;99.90;;;;;;2089703;28;20526;-74
2022/06/10 00:29:13;;;;;;;9.52;6.68;;;16.70;99.90;;;;;;2081354;28;20033;-74
2022/06/10 00:30:15;;;;;;;10.10;6.93;;;16.70;99.90;;;;;;2081264;28;20025;-74
2022/06/10 00:31:19;;;;;;;9.45;7.28;;;16.70;99.90;;;;;;2089260;28;20507;-74
2022/06/10 00:32:19;;;;;;;8.80;7.45;;;16.70;99.90;;;;;;2081292;28;20135;-74
2022/06/10 00:33:20;;;;;;;6.97;6.20;;;16.60;99.90;;;;;;2081447;28;20025;-74
2022/06/10 00:34:21;;;;;;;7.88;6.28;;;16.70;99.90;;;;;;2089435;28;20025;-74
2022/06/10 00:35:22;;;;;;;8.60;6.60;;;16.60;99.90;;;;;;2089967;28;20028;-74
2022/06/10 00:36:23;;;;;;;7.68;6.57;;;16.60;99.90;;;;;;2090436;28;20025;-74
2022/06/10 00:37:24;;;;;;;12.95;7.90;;;16.60;99.90;;;;;;2081023;28;20029;-74
2022/06/10 00:38:25;;;;;;;10.75;7.57;;;16.60;99.90;;;;;;2081133;28;20055;-74
2022/06/10 00:39:25;;;;;;;9.63;7.30;;;16.60;99.90;;;;;;2089342;28;20017;-74
2022/06/10 00:40:29;;;;;;;12.93;7.82;;;16.60;99.90;;;;;;2089464;28;20039;-74
2022/06/10 00:41:30;;;;;;;10.60;7.28;;;16.60;99.90;;;;;;2089430;28;20017;-74
2022/06/10 00:42:31;;;;;;;7.82;6.85;;;16.60;99.90;;;;;;2080993;28;20040;-74
2022/06/10 00:43:34;;;;;;;9.55;7.20;;;16.60;99.90;;;;;;2081159;28;20035;-74
2022/06/10 00:44:42;;;;;;;10.88;6.53;;;16.60;99.90;;;;;;2081014;28;20095;-74
2022/06/10 00:46:18;;;;;;;8.25;6.72;;;16.60;99.90;;;;;;2089353;28;20535;-74
2022/06/10 00:47:32;;;;;;;8.93;6.90;;;16.50;99.90;;;;;;2081285;28;20459;-73
2022/06/10 00:48:50;;;;;;;8.63;6.70;;;16.60;99.90;;;;;;2073305;28;20160;-74
2022/06/10 00:50:16;;;;;;;8.75;7.22;;;16.60;99.90;;;;;;2081373;28;20021;-74
2022/06/10 00:51:22;;;;;;;9.07;6.68;;;16.50;99.90;;;;;;2073486;28;20471;-74
2022/06/10 00:52:29;;;;;;;7.70;6.20;;;16.50;99.90;;;;;;2081783;28;20021;-74
2022/06/10 00:53:34;;;;;;;6.95;5.60;;;16.50;99.90;;;;;;2081662;28;20017;-74
2022/06/10 00:54:39;;;;;;;8.05;5.80;;;16.50;99.90;;;;;;2089583;28;20025;-75
2022/06/10 00:55:43;;;;;;;9.43;6.78;;;16.50;99.90;;;;;;2080298;28;20040;-73
2022/06/10 00:56:58;;;;;;;9.57;7.07;;;16.50;99.90;;;;;;2064465;28;20517;-72
2022/06/10 00:58:04;;;;;;;10.15;6.97;;;16.50;99.90;;;;;;2073965;28;20034;-72
2022/06/10 00:59:13;;;;;;;7.40;6.68;;;16.50;99.90;;;;;;2080784;28;20017;-72
2022/06/10 01:00:18;;;;;;;10.00;6.90;;;16.40;99.90;;;;;;2080599;28;20476;-73
2022/06/10 01:01:20;;;;;;;7.80;6.60;;;16.40;99.90;;;;;;2071893;28;20034;-73
2022/06/10 01:04:44;;;;;;;8.27;6.28;;;16.40;99.90;;;;;;2081442;28;20029;-74
2022/06/10 01:05:44;;;;;;;8.25;6.07;;;16.40;99.90;;;;;;2072514;28;20041;-74
2022/06/10 01:06:45;;;;;;;8.02;6.47;;;16.40;99.90;;;;;;2073250;28;20041;-74
2022/06/10 01:07:50;;;;;;;9.00;6.13;;;16.50;99.90;;;;;;2073236;28;20050;-74
2022/06/10 01:08:53;;;;;;;9.73;6.82;;;16.50;99.90;;;;;;2074863;28;20022;-74
2022/06/10 01:09:55;;;;;;;9.52;6.65;;;16.50;99.90;;;;;;2083217;28;20040;-74
2022/06/10 01:11:04;;;;;;;8.15;6.95;;;16.50;99.90;;;;;;2073141;28;20085;-73
2022/06/10 01:12:39;;;;;;;8.10;6.53;;;16.50;99.90;;;;;;2073685;28;20526;-73
2022/06/10 01:13:43;;;;;;;11.07;7.00;;;16.50;99.90;;;;;;2080469;28;20079;-73
2022/06/10 01:15:03;;;;;;;9.82;7.00;;;16.50;99.90;;;;;;2081148;28;20038;-73
2022/06/10 01:16:10;;;;;;;9.55;6.70;;;16.50;99.90;;;;;;2072098;28;20033;-73
2022/06/10 01:17:29;;;;;;;8.20;6.72;;;16.50;99.90;;;;;;2073386;28;20048;-73
2022/06/10 01:18:48;;;;;;;9.45;6.55;;;16.40;99.90;;;;;;2088699;28;20036;-72
2022/06/10 01:20:19;;;;;;;9.68;6.90;;;16.40;99.90;;;;;;2087012;28;20084;-74
2022/06/10 01:21:53;;;;;;;9.48;6.43;;;16.50;99.90;;;;;;2072413;28;20061;-73
2022/06/10 01:23:22;;;;;;;7.68;6.38;;;16.50;99.90;;;;;;2080558;28;20029;-73
2022/06/10 01:24:45;;;;;;;6.30;5.70;;;16.50;99.90;;;;;;2081011;28;20535;-73
2022/06/10 01:26:18;;;;;;;7.80;6.00;;;16.50;99.90;;;;;;2072272;28;20055;-73
2022/06/10 01:27:49;;;;;;;8.57;6.35;;;16.50;99.90;;;;;;2076291;28;20029;-73
2022/06/10 01:28:52;;;;;;;;;;;16.40;99.90;;;;;;2081068;28;20033;-73
2022/06/10 01:30:11;;;;;;;9.40;6.30;;;16.40;99.90;;;;;;2088110;28;19912;-73
2022/06/10 01:31:24;;;;;;;10.82;7.10;;;16.40;99.90;;;;;;2077317;28;20033;-73
2022/06/10 01:32:53;;;;;;;11.23;6.97;;;16.30;99.90;;;;;;2073262;28;20041;-72
2022/06/10 01:34:28;;;;;;;7.95;6.45;;;16.30;99.90;;;;;;2080081;28;20033;-72
2022/06/10 01:35:28;;;;;;;10.02;7.07;;;16.30;99.90;;;;;;2063367;28;20117;-72
2022/06/10 01:36:57;;;;;;;7.93;6.90;;;16.30;99.90;;;;;;2063625;28;20738;-73
2022/06/10 01:38:05;;;;;;;7.47;6.30;;;16.20;99.90;;;;;;2080607;28;20021;-72
2022/06/10 01:39:17;;;;;;;6.68;5.88;;;16.20;99.90;;;;;;2080522;28;20037;-73
2022/06/10 01:40:35;;;;;;;7.75;6.20;;;16.20;99.90;;;;;;2087989;28;20072;-72
2022/06/10 01:42:01;;;;;;;8.85;7.32;;;16.10;99.90;;;;;;2086038;28;20468;-73
2022/06/10 01:43:16;;;;;;;11.10;7.47;;;16.10;99.90;;;;;;2080381;28;20087;-72
2022/06/10 01:44:39;;;;;;;11.27;7.18;;;16.00;99.90;;;;;;2080704;28;20581;-72
2022/06/10 01:45:49;;;;;;;12.45;7.40;;;16.00;99.90;;;;;;2080451;28;20033;-72
2022/06/10 01:47:02;;;;;;;9.13;7.05;;;15.90;99.90;;;;;;2080370;28;20483;-72
2022/06/10 01:48:09;;;;;;;11.60;7.80;;;15.90;99.90;;;;;;2082802;28;20036;-72
2022/06/10 01:49:26;;;;;;;9.50;7.38;;;15.90;99.90;;;;;;2088043;28;20136;-73
2022/06/10 01:50:43;;;;;;;10.20;7.70;;;15.90;99.90;;;;;;2088375;28;20036;-73
2022/06/10 01:51:58;;;;;;;10.30;7.50;;;15.80;99.90;;;;;;2088611;28;20116;-73
2022/06/10 01:53:07;;;;;;;11.48;7.90;;;15.80;99.90;;;;;;2088382;28;20565;-72
2022/06/10 01:54:22;;;;;;;8.13;7.20;;;15.80;99.90;;;;;;2088559;28;20525;-73
2022/06/10 01:55:48;;;;;;;9.07;7.90;;;15.70;99.90;;;;;;2088598;28;20476;-72
2022/06/10 01:56:55;;;;;;;10.63;7.85;;;15.70;99.90;;;;;;2088528;28;20116;-72
2022/06/10 01:58:29;;;;;;;8.15;7.25;;;15.70;99.90;;;;;;2088560;28;20630;-73
2022/06/10 01:59:44;;;;;;;8.13;7.05;;;15.60;99.90;;;;;;2088646;28;20032;-73
2022/06/10 02:00:48;;;;;;;9.50;7.47;;;15.60;99.90;;;;;;2087805;28;20029;-73
2022/06/10 02:02:07;;;;;;;9.30;7.30;;;15.60;99.90;;;;;;2087884;28;20029;-72
2022/06/10 02:03:17;;;;;;;10.27;7.78;;;15.60;99.90;;;;;;2087389;28;20025;-73
2022/06/10 02:04:20;;;;;;;9.07;7.40;;;15.60;99.90;;;;;;2087975;28;20163;-73
2022/06/10 02:05:24;;;;;;;10.00;7.85;;;15.60;99.90;;;;;;2087648;28;20631;-73
2022/06/10 02:06:32;;;;;;;8.75;6.93;;;15.50;99.90;;;;;;2087867;28;20040;-73
2022/06/10 02:07:42;;;;;;;9.27;7.57;;;15.50;99.90;;;;;;2088438;28;20035;-73
2022/06/10 02:08:56;;;;;;;8.68;7.57;;;15.50;99.90;;;;;;2088544;28;20037;-72
2022/06/10 02:10:13;;;;;;;8.75;7.38;;;15.50;99.90;;;;;;2088429;28;20029;-73
2022/06/10 02:11:17;;;;;;;11.65;7.85;;;15.50;99.90;;;;;;2088432;28;20496;-73
2022/06/10 02:12:31;;;;;;;9.93;7.78;;;15.50;99.90;;;;;;2088419;28;20104;-73
2022/06/10 02:13:39;;;;;;;10.13;7.30;;;15.50;99.90;;;;;;2087598;28;20025;-73
2022/06/10 02:14:52;;;;;;;8.68;7.70;;;15.40;99.90;;;;;;2087503;28;20576;-73
2022/06/10 02:15:57;;;;;;;11.25;7.45;;;15.40;99.90;;;;;;2088393;28;20043;-73
2022/06/10 02:17:01;;;;;;;8.75;7.57;;;15.40;99.90;;;;;;2088326;28;20119;-73
2022/06/10 02:18:11;;;;;;;8.35;6.57;;;15.40;99.90;;;;;;2088310;28;20035;-73
2022/06/10 02:19:35;;;;;;;7.07;6.22;;;15.40;99.90;;;;;;2088336;28;20029;-73
2022/06/10 02:20:41;;;;;;;8.73;6.22;;;15.30;99.90;;;;;;2088181;28;20032;-72
2022/06/10 02:21:50;;;;;;;6.68;5.63;;;15.30;99.90;;;;;;2088263;28;20043;-73
2022/06/10 02:22:54;;;;;;;6.40;5.80;;;15.40;99.90;;;;;;2088111;28;20059;-73
2022/06/10 02:24:10;;;;;;;9.45;7.43;;;15.30;99.90;;;;;;2087991;28;20703;-73
2022/06/10 02:25:12;;;;;;;7.30;6.60;;;15.30;99.90;;;;;;2088189;28;20665;-73
2022/06/10 02:26:14;;;;;;;9.50;7.18;;;15.30;99.90;;;;;;2087509;28;20112;-73
2022/06/10 02:27:20;;;;;;;9.20;7.53;;;15.30;99.90;;;;;;2087569;28;20485;-73
2022/06/10 02:28:40;;;;;;;8.77;7.55;;;15.30;99.90;;;;;;2087985;28;20029;-73
2022/06/10 02:29:53;;;;;;;9.73;7.75;;;15.30;99.90;;;;;;2088125;28;20466;-73
2022/06/10 02:31:00;;;;;;;9.35;8.07;;;15.20;99.90;;;;;;2088264;28;20024;-73
2022/06/10 02:32:01;;;;;;;8.52;7.30;;;15.20;99.90;;;;;;2088362;28;20103;-73
2022/06/10 02:33:02;;;;;;;12.75;8.63;;;15.20;99.90;;;;;;2087923;28;20399;-73
2022/06/10 02:34:04;;;;;;;9.63;7.72;;;15.30;99.90;;;;;;2088111;28;20040;-73
2022/06/10 02:35:07;;;;;;;9.35;7.68;;;15.20;99.90;;;;;;2088247;28;20086;-73
2022/06/10 02:36:21;;;;;;;9.43;7.63;;;15.20;99.90;;;;;;2088032;28;20053;-73
2022/06/10 02:37:33;;;;;;;11.88;8.23;;;15.20;99.90;;;;;;2088260;28;20060;-73
2022/06/10 02:38:43;;;;;;;9.20;7.50;;;15.20;99.90;;;;;;2088065;28;20533;-73
2022/06/10 02:39:56;;;;;;;11.13;8.17;;;15.20;99.90;;;;;;2087535;28;20032;-73
2022/06/10 02:41:11;;;;;;;9.90;7.65;;;15.20;99.90;;;;;;2087415;28;20191;-73
2022/06/10 02:42:27;;;;;;;8.98;7.78;;;15.20;99.90;;;;;;2088048;28;20021;-73
2022/06/10 02:43:32;;;;;;;10.57;7.93;;;15.10;99.90;;;;;;2087841;28;20033;-73
2022/06/10 02:45:08;;;;;;;8.18;7.30;;;15.10;99.90;;;;;;2088233;28;20060;-73
2022/06/10 02:46:16;;;;;;;9.05;7.63;;;15.10;99.90;;;;;;2074541;28;20044;-74
2022/06/10 02:47:34;;;;;;;11.80;8.90;;;15.10;99.90;;;;;;2087436;28;20025;-73
2022/06/10 02:49:03;;;;;;;9.95;8.10;;;15.10;99.90;;;;;;2073546;28;20029;-73
2022/06/10 02:50:04;;;;;;;10.32;7.40;;;15.00;99.90;;;;;;2079674;28;20048;-73
2022/06/10 02:51:05;;;;;;;9.32;7.40;;;15.00;99.90;;;;;;2079802;28;20134;-73
2022/06/10 02:52:07;;;;;;;9.98;8.15;;;15.00;99.90;;;;;;2079530;28;20408;-72
2022/06/10 02:53:08;;;;;;;9.05;7.78;;;15.00;99.90;;;;;;2079411;28;20056;-73
2022/06/10 02:54:34;;;;;;;8.50;7.60;;;15.00;99.90;;;;;;2079713;28;20025;-72
2022/06/10 02:55:35;;;;;;;9.63;8.40;;;15.00;99.90;;;;;;2079751;28;20037;-72
2022/06/10 02:56:35;;;;;;;9.88;7.82;;;15.00;99.90;;;;;;2079878;28;20075;-72
2022/06/10 03:01:47;;;;;;;9.40;7.43;;;14.90;99.90;;;;;;2079677;28;20021;-72
2022/06/10 03:03:07;;;;;;;10.57;8.25;;;14.90;99.90;;;;;;2079759;28;20021;-73
2022/06/10 03:04:26;;;;;;;13.27;8.40;;;14.90;99.90;;;;;;2079614;28;20641;-71
2022/06/10 03:05:35;;;;;;;8.65;7.80;;;14.90;99.90;;;;;;2079802;28;20044;-72
2022/06/10 03:06:46;;;;;;;10.95;8.50;;;14.90;99.90;;;;;;2071039;28;20038;-73
2022/06/10 03:08:29;;;;;;;10.18;7.88;;;14.90;99.90;;;;;;2072645;28;20152;-72
2022/06/10 03:09:48;;;;;;;9.63;7.88;;;14.90;99.90;;;;;;2054380;28;20046;-73
2022/06/10 03:11:11;;;;;;;11.85;8.95;;;14.90;99.90;;;;;;2054539;28;20062;-72
2022/06/10 03:12:37;;;;;;;9.55;7.70;;;14.90;99.90;;;;;;2074144;28;20033;-72
2022/06/10 03:13:52;;;;;;;9.02;8.13;;;14.90;99.90;;;;;;2079384;28;20442;-72
2022/06/10 03:15:11;;;;;;;8.52;7.18;;;14.90;99.90;;;;;;2079601;28;20071;-71
2022/06/10 03:16:18;;;;;;;10.25;7.80;;;14.90;99.90;;;;;;2087190;28;20025;-71
2022/06/10 03:17:40;;;;;;;10.65;8.00;;;14.90;99.90;;;;;;2078476;28;20079;-72
2022/06/10 03:19:00;;;;;;;8.73;7.50;;;14.90;99.90;;;;;;2073915;28;20037;-72
2022/06/10 03:20:15;;;;;;;11.60;8.15;;;14.90;99.90;;;;;;2079182;28;20435;-71
2022/06/10 03:21:41;;;;;;;14.32;8.77;;;14.90;99.90;;;;;;2070891;28;20014;-72
2022/06/10 03:22:49;;;;;;;11.57;9.00;;;14.90;99.90;;;;;;2074370;28;20192;-72
2022/06/10 03:24:13;;;;;;;14.95;9.00;;;14.90;99.90;;;;;;2078771;28;20108;-72
2022/06/10 03:25:23;;;;;;;12.90;8.52;;;14.90;99.90;;;;;;2070956;28;20029;-72
2022/06/10 03:26:51;;;;;;;10.90;8.70;;;14.90;99.90;;;;;;2071733;28;20052;-71
2022/06/10 03:28:10;;;;;;;10.48;8.32;;;14.90;99.90;;;;;;2079807;28;20029;-71
2022/06/10 03:29:40;;;;;;;13.07;8.52;;;14.90;99.90;;;;;;2079602;28;20506;-72
2022/06/10 03:31:10;;;;;;;10.35;8.48;;;14.90;99.90;;;;;;2081922;28;20052;-71
2022/06/10 03:32:23;;;;;;;9.60;7.82;;;15.00;99.90;;;;;;2078532;28;20042;-72
2022/06/10 03:33:37;;;;;;;37.80;29.58;;;15.00;99.90;;;;;;2081388;28;20037;-71
2022/06/10 03:34:45;;;;;;;19.73;15.98;;;15.00;99.90;;;;;;2080039;28;20029;-71
2022/06/10 03:35:53;;;;;;;12.80;8.68;;;15.10;99.90;;;;;;2079761;28;20057;-72
2022/06/10 03:36:57;;;;;;;13.27;8.50;;;15.10;99.90;;;;;;2079727;28;20083;-70
2022/06/10 03:37:58;;;;;;;25.55;22.33;;;15.20;99.90;;;;;;2079774;28;20029;-72
2022/06/10 03:39:01;;;;;;;19.27;16.15;;;15.20;99.90;;;;;;2079718;28;20116;-72
2022/06/10 03:40:03;;;;;;;14.45;12.20;;;15.20;99.90;;;;;;2079509;28;20038;-72
2022/06/10 03:41:04;;;;;;;15.00;10.02;;;15.30;99.90;;;;;;2079702;28;20080;-72
2022/06/10 03:42:15;;;;;;;12.73;8.77;;;15.30;99.90;;;;;;2079804;28;20033;-71
2022/06/10 03:43:15;;;;;;;9.85;8.38;;;15.30;99.90;;;;;;2070621;28;20061;-71
2022/06/10 03:44:18;;;;;;;9.65;8.02;;;15.30;99.90;;;;;;2071308;28;20579;-72
2022/06/10 03:45:28;;;;;;;10.27;7.60;;;15.40;99.90;;;;;;2080085;28;20095;-71
2022/06/10 03:46:31;;;;;;;7.90;6.95;;;15.30;99.90;;;;;;2080161;28;20112;-72
2022/06/10 03:47:37;;;;;;;7.10;6.20;;;15.40;99.90;;;;;;2081440;28;20034;-72
2022/06/10 03:48:40;;;;;;;7.88;6.53;;;15.40;99.90;;;;;;2088200;28;20054;-71
2022/06/10 03:50:04;;;;;;;11.30;7.50;;;15.40;99.90;;;;;;2087545;28;20538;-72
2022/06/10 03:51:08;;;;;;;12.30;7.72;;;15.40;99.90;;;;;;2087621;28;20087;-71
2022/06/10 03:52:15;;;;;;;8.68;6.90;;;15.40;99.90;;;;;;2088171;28;20111;-71
2022/06/10 03:53:19;;;;;;;7.32;6.63;;;15.30;99.90;;;;;;2087405;28;20104;-73
2022/06/10 03:54:20;;;;;;;8.93;6.95;;;15.40;99.90;;;;;;2087837;28;20556;-71
2022/06/10 03:55:21;;;;;;;7.13;6.35;;;15.40;99.90;;;;;;2087866;28;20025;-71
2022/06/10 03:56:23;;;;;;;8.27;6.53;;;15.40;99.90;;;;;;2087140;28;20033;-71
2022/06/10 03:57:24;;;;;;;9.07;7.22;;;15.40;99.90;;;;;;2087095;28;20032;-71
2022/06/10 03:58:24;;;;;;;10.75;7.75;;;15.40;99.90;;;;;;2087798;28;20061;-70
2022/06/10 03:59:25;;;;;;;9.25;7.43;;;15.40;99.90;;;;;;2087025;28;20040;-72
2022/06/10 04:00:28;;;;;;;8.80;6.82;;;15.40;99.90;;;;;;2086916;28;20071;-71
2022/06/10 04:01:28;;;;;;;8.20;6.60;;;15.40;99.90;;;;;;2087219;28;20525;-71
2022/06/10 04:02:29;;;;;;;9.07;7.03;;;15.40;99.90;;;;;;2087747;28;20104;-71
2022/06/10 04:03:30;;;;;;;6.97;6.25;;;15.40;99.90;;;;;;2087479;28;20025;-72
2022/06/10 04:04:31;;;;;;;7.18;6.13;;;15.40;99.90;;;;;;2087502;28;20044;-71
2022/06/10 04:05:32;;;;;;;7.03;6.10;;;15.40;99.90;;;;;;2087650;28;20104;-70
2022/06/10 04:06:33;;;;;;;5.90;5.35;;;15.50;99.90;;;;;;2087731;28;20091;-72
2022/06/10 04:07:33;;;;;;;6.53;5.80;;;15.50;99.90;;;;;;2087649;28;20037;-71
2022/06/10 04:08:34;;;;;;;9.43;6.35;;;15.50;99.90;;;;;;2087670;28;20087;-71
2022/06/10 04:09:35;;;;;;;8.02;5.97;;;15.60;99.90;;;;;;2087721;28;20048;-71
2022/06/10 04:10:35;;;;;;;6.63;5.93;;;15.60;99.90;;;;;;2087655;28;20097;-71
2022/06/10 04:11:36;;;;;;;10.20;6.60;;;15.70;99.90;;;;;;2087024;28;20075;-72
2022/06/10 04:12:37;;;;;;;9.40;7.10;;;15.60;99.90;;;;;;2086942;28;20029;-71
2022/06/10 04:13:38;;;;;;;9.18;7.07;;;15.70;99.90;;;;;;2087353;28;20498;-71
2022/06/10 04:14:38;;;;;;;7.43;6.20;;;15.60;99.90;;;;;;2087620;28;20063;-71
2022/06/10 04:15:39;;;;;;;7.50;5.72;;;15.70;99.90;;;;;;2087520;28;20407;-71
2022/06/10 04:16:40;;;;;;;6.20;5.60;;;15.70;99.90;;;;;;2086929;28;20067;-71
2022/06/10 04:17:43;;;;;;;5.97;5.47;;;15.70;99.90;;;;;;2087045;28;20025;-71
2022/06/10 04:18:44;;;;;;;8.30;6.90;;;15.80;99.90;;;;;;2087624;28;20029;-71
2022/06/10 04:19:45;;;;;;;6.82;5.63;;;15.80;99.90;;;;;;2087599;28;20028;-71
2022/06/10 04:20:45;;;;;;;6.82;5.80;;;15.80;99.90;;;;;;2087511;28;20025;-71
2022/06/10 04:21:46;;;;;;;5.93;5.25;;;15.90;99.90;;;;;;2087547;28;20035;-71
2022/06/10 04:22:47;;;;;;;6.13;5.53;;;15.90;99.90;;;;;;2086631;28;20060;-70
2022/06/10 04:23:48;;;;;;;5.70;5.07;;;15.90;99.90;;;;;;2086622;28;20495;-71
2022/06/10 04:24:48;;;;;;;5.28;4.78;;;16.00;99.90;;;;;;2087607;28;20459;-71
2022/06/10 04:25:49;;;;;;;6.97;5.45;;;16.00;99.90;;;;;;2087796;28;20579;-71
2022/06/10 04:26:50;;;;;;;7.10;5.03;;;16.10;99.90;;;;;;2087391;28;20032;-71
2022/06/10 04:27:51;;;;;;;7.35;5.78;;;16.10;99.90;;;;;;2087593;28;20458;-72
2022/06/10 04:28:51;;;;;;;7.15;5.88;;;16.20;99.90;;;;;;2087504;28;20391;-72
2022/06/10 04:29:52;;;;;;;7.10;5.60;;;16.30;99.90;;;;;;2086827;28;20041;-71
2022/06/10 04:30:53;;;;;;;6.82;5.70;;;16.30;99.90;;;;;;2086846;28;20035;-71
2022/06/10 04:31:54;;;;;;;6.85;5.28;;;16.40;99.90;;;;;;2078712;28;20562;-71
2022/06/10 04:32:55;;;;;;;7.07;5.82;;;16.50;99.90;;;;;;2078598;28;20527;-72
2022/06/10 04:33:56;;;;;;;8.45;6.53;;;16.50;99.90;;;;;;2087323;28;20017;-71
2022/06/10 04:34:56;;;;;;;10.57;6.55;;;16.50;99.90;;;;;;2086755;28;20554;-71
2022/06/10 04:35:57;;;;;;;11.40;7.22;;;16.50;99.90;;;;;;2086781;28;20561;-71
2022/06/10 04:36:58;;;;;;;7.47;6.68;;;16.60;99.90;;;;;;2087514;28;20111;-71
2022/06/10 04:37:59;;;;;;;8.70;5.68;;;16.60;99.90;;;;;;2088726;28;20052;-71
2022/06/10 04:38:59;;;;;;;8.43;6.00;;;16.80;99.90;;;;;;2089214;28;20383;-72
2022/06/10 04:40:00;;;;;;;9.32;5.38;;;17.00;99.90;;;;;;2089009;28;20136;-72
2022/06/10 04:41:01;;;;;;;9.95;5.43;;;17.40;99.90;;;;;;2089136;28;20657;-72
2022/06/10 04:42:01;;;;;;;7.80;5.70;;;17.80;99.90;;;;;;2089228;28;20063;-72
2022/06/10 04:43:03;;;;;;;7.05;5.40;;;18.20;99.90;;;;;;2088937;28;20134;-72
2022/06/10 04:44:04;;;;;;;5.38;4.75;;;18.70;99.90;;;;;;2088147;28;20091;-72
2022/06/10 04:45:05;;;;;;;6.30;5.20;;;19.10;99.90;;;;;;2088670;28;20052;-72
2022/06/10 04:46:08;;;;;;;5.38;4.40;;;19.60;99.90;;;;;;2088554;28;20582;-72
2022/06/10 04:47:09;;;;;;;8.23;4.15;;;20.00;99.90;;;;;;2088354;28;20035;-73
2022/06/10 04:48:11;;;;;;;6.30;4.20;;;20.30;99.90;;;;;;2089080;28;20395;-74
2022/06/10 04:49:12;;;;;;;6.45;4.18;;;20.60;99.90;;;;;;2089067;28;20047;-72
2022/06/10 04:50:16;;;;;;;4.72;4.20;;;20.80;99.90;;;;;;2088907;28;20021;-72
2022/06/10 04:51:16;;;;;;;5.70;3.92;;;21.00;99.90;;;;;;2089199;28;20036;-72
2022/06/10 04:52:17;;;;;;;4.68;3.60;;;21.20;99.90;;;;;;2088919;28;20028;-72
2022/06/10 04:53:17;;;;;;;6.82;3.90;;;21.50;99.90;;;;;;2088668;28;20033;-72
2022/06/10 04:54:18;;;;;;;4.40;3.60;;;21.70;99.90;;;;;;2088882;28;20120;-72
2022/06/10 04:55:19;;;;;;;5.20;3.70;;;21.90;99.90;;;;;;2089041;28;20021;-72
2022/06/10 04:56:20;;;;;;;6.22;3.70;;;22.00;99.90;;;;;;2088883;28;20070;-72
2022/06/10 04:57:21;;;;;;;3.58;3.28;;;22.20;99.90;;;;;;2088891;28;20109;-72
2022/06/10 04:58:22;;;;;;;6.88;3.30;;;22.40;99.90;;;;;;2088927;28;20040;-73
2022/06/10 04:59:22;;;;;;;4.13;3.58;;;22.60;99.40;;;;;;2089031;28;20163;-73
2022/06/10 05:00:31;;;;;;;5.35;3.92;;;22.50;97.90;;;;;;2088912;28;20043;-74
2022/06/10 05:01:32;;;;;;;3.95;3.45;;;22.60;97.30;;;;;;2088987;28;20024;-73
2022/06/10 05:02:34;;;;;;;5.75;3.50;;;22.60;96.60;;;;;;2088889;28;20561;-71
2022/06/10 05:03:35;;;;;;;3.38;3.08;;;22.70;96.00;;;;;;2088737;28;20163;-71
2022/06/10 05:04:36;;;;;;;4.70;3.40;;;22.80;95.60;;;;;;2079985;28;20033;-70
2022/06/10 05:05:38;;;;;;;3.85;3.10;;;22.90;95.00;;;;;;2079855;28;20868;-71
2022/06/10 05:06:38;;;;;;;4.00;3.05;;;23.00;94.70;;;;;;2088865;28;20107;-71
2022/06/10 05:07:39;;;;;;;5.57;3.78;;;23.10;94.00;;;;;;2088699;28;20090;-71
2022/06/10 05:08:40;;;;;;;4.10;3.40;;;23.10;93.30;;;;;;2088994;28;20029;-71
2022/06/10 05:09:41;;;;;;;5.22;3.65;;;23.10;92.90;;;;;;2088927;28;20029;-71
2022/06/10 05:10:42;;;;;;;4.97;3.33;;;23.10;92.60;;;;;;2088822;28;20106;-71
2022/06/10 05:11:42;;;;;;;4.55;3.25;;;23.10;92.70;;;;;;2089028;28;20032;-70
2022/06/10 05:12:46;;;;;;;5.50;2.97;;;23.30;92.20;;;;;;2089063;28;20063;-71
2022/06/10 05:13:46;;;;;;;4.10;3.15;;;23.30;91.50;;;;;;2088654;28;20029;-72
2022/06/10 05:14:47;;;;;;;4.90;3.00;;;23.40;91.00;;;;;;2088888;28;20029;-72
2022/06/10 05:15:49;;;;;;;5.65;3.80;;;23.60;89.80;;;;;;2088888;28;20055;-73
2022/06/10 05:16:50;;;;;;;5.20;3.25;;;23.40;89.80;;;;;;2089152;28;20071;-72
2022/06/10 05:17:52;;;;;;;6.63;3.80;;;23.40;89.20;;;;;;2089039;28;20129;-72
2022/06/10 05:18:53;;;;;;;5.55;3.60;;;23.20;88.20;;;;;;2071943;28;20513;-71
2022/06/10 05:19:54;;;;;;;8.00;3.83;;;23.00;88.70;;;;;;2064053;28;20057;-71
2022/06/10 05:20:54;;;;;;;4.78;3.33;;;22.80;89.20;;;;;;2080131;28;20025;-71
2022/06/10 05:21:55;;;;;;;6.85;3.42;;;22.80;89.70;;;;;;2088945;28;20480;-71
2022/06/10 05:22:56;;;;;;;5.05;3.20;;;22.80;90.00;;;;;;2089185;28;20063;-71
2022/06/10 05:23:57;;;;;;;3.72;2.88;;;22.60;90.20;;;;;;2089227;28;20029;-69
2022/06/10 05:24:57;;;;;;;8.60;3.47;;;22.90;90.10;;;;;;2089543;28;20044;-71
2022/06/10 05:25:58;;;;;;;4.70;3.47;;;23.00;89.70;;;;;;2089852;28;20021;-70
2022/06/10 05:26:59;;;;;;;5.40;2.90;;;23.00;87.90;;;;;;2089875;28;20064;-71
2022/06/10 05:28:01;;;;;;;6.60;3.10;;;22.90;89.10;;;;;;2080518;28;20037;-70
2022/06/10 05:29:02;;;;;;;3.53;2.88;;;23.00;88.50;;;;;;2080500;28;20461;-71
2022/06/10 05:30:04;;;;;;;3.22;2.92;;;23.00;88.20;;;;;;2089282;28;20035;-73
2022/06/10 05:31:05;;;;;;;5.55;3.90;;;23.10;86.60;;;;;;2080700;28;20071;-69
2022/06/10 05:32:06;;;;;;;5.80;3.38;;;23.30;85.70;;;;;;2081322;28;20303;-69
2022/06/10 05:33:08;;;;;;;6.30;3.38;;;23.50;84.20;;;;;;2089478;28;20029;-70
2022/06/10 05:35:30;;;;;;;6.65;3.22;;;23.40;82.70;;;;;;2089498;28;20024;-71
2022/06/10 05:36:31;;;;;;;3.78;2.70;;;23.40;82.90;;;;;;2089275;28;20088;-72
2022/06/10 05:37:31;;;;;;;6.45;3.00;;;23.50;82.80;;;;;;2089768;28;20029;-72
2022/06/10 05:38:32;;;;;;;4.40;2.92;;;23.50;81.90;;;;;;2089835;28;20087;-73
2022/06/10 05:39:33;;;;;;;5.68;2.65;;;23.70;81.70;;;;;;2090118;28;20132;-72
2022/06/10 05:40:35;;;;;;;3.70;3.20;;;23.80;81.10;;;;;;2081047;28;20036;-72
2022/06/10 05:42:55;;;;;;;5.95;3.10;;;23.50;81.50;;;;;;2081586;28;20096;-72
2022/06/10 05:43:55;;;;;;;5.82;3.03;;;23.60;81.70;;;;;;2081494;28;20030;-72
2022/06/10 05:44:56;;;;;;;3.55;2.70;;;23.60;79.80;;;;;;2090475;28;20025;-72
2022/06/10 05:45:57;;;;;;;7.03;2.97;;;23.70;80.30;;;;;;2089965;28;20123;-70
2022/06/10 05:47:00;;;;;;;5.25;3.00;;;23.80;79.50;;;;;;2090448;28;20037;-69
2022/06/10 05:48:01;;;;;;;4.22;3.10;;;23.80;78.50;;;;;;2091358;28;20509;-70
2022/06/10 05:49:03;;;;;;;4.15;2.83;;;23.80;78.50;;;;;;2091317;28;20048;-70
2022/06/10 05:50:09;;;;;;;5.75;3.08;;;23.80;78.20;;;;;;2090244;28;20091;-70
2022/06/10 05:51:09;;;;;;;6.75;3.15;;;23.60;79.00;;;;;;2088954;28;20116;-71
2022/06/10 05:52:11;;;;;;;4.80;3.05;;;23.70;77.60;;;;;;2088652;28;20028;-72
2022/06/10 05:53:14;;;;;;;6.10;2.60;;;23.50;78.20;;;;;;2088396;28;20084;-72
2022/06/10 05:54:15;;;;;;;3.67;2.50;;;23.60;76.30;;;;;;2088407;28;20403;-73
2022/06/10 05:55:24;;;;;;;3.95;2.83;;;23.50;75.50;;;;;;2089376;28;20095;-71
2022/06/10 05:56:25;;;;;;;2.95;2.50;;;23.10;76.90;;;;;;2089128;28;20459;-71